Altus, Oklahoma
Current Conditions -  °F | °C
As of 5:28 AM on Thursday 18 Dec 2014 (Local Time) from KLTS Reporting Station
Haze Haze  
Wind Chill: 36°   Ceiling: 200
Heat Index: 39°   Visibility: 2mi
Dew Point: 39°   Wind: 5mph
Humidity: 100%   Direction: 110°ESE
Pressure: 30.08"   Gusts: NA
Location:  34.64°N, 99.33°W
Report Text: KLTS 181128Z AUTO 11004KT 2SM R17R/4500FT BR OVC002 04/04 A3008 RMK AO2 VIS 2V2 1/2 $
Loading
Personal Weather Stations






























Interactive Weather Map New forecast layout! Learn more

10-Day Weather Forecast

Advertisements
Track Severe Weather on mobile